Time;durP1;ratioP1;P1;durP2;ratioP2;P2;SDS_P1;SDS_P2;PMS_P1;PMS_P2;Temp;Humidity;BMP_temperature;BMP_pressure;BME280_temperature;BME280_humidity;BME280_pressure;Samples;Min_cycle;Max_cycle;Signal;HPM_P1;HPM_P2
2024/04/18 00:00:05;;;;;;;9.90;8.83;;;6.00;99.90;;;-141.84;97.44;104580.41;5433531;26;20257;-59
2024/04/18 00:02:35;;;;;;;10.13;9.13;;;5.90;99.90;;;-141.84;97.19;105111.94;5433385;26;20330;-59
2024/04/18 00:05:03;;;;;;;9.10;8.30;;;6.00;99.90;;;-141.84;93.42;97146.31;5422794;26;20343;-59
2024/04/18 00:07:33;;;;;;;9.43;8.40;;;6.10;99.90;;;-141.84;90.09;85756.25;5432675;26;20254;-58
2024/04/18 00:10:01;;;;;;;9.60;8.47;;;6.10;99.90;;;-141.84;89.98;85227.25;5435144;26;20310;-59
2024/04/18 00:12:31;;;;;;;8.53;7.73;;;6.00;99.90;;;-141.84;90.99;87343.63;5433536;26;20253;-59
2024/04/18 00:15:01;;;;;;;8.60;7.80;;;6.00;99.90;;;-141.84;91.29;87872.91;5418158;26;20294;-59
2024/04/18 00:17:31;;;;;;;10.67;7.77;;;5.90;99.90;;;-141.84;91.71;90520.28;5432338;26;20679;-59
2024/04/18 00:19:58;;;;;;;7.73;6.93;;;6.00;99.90;;;-141.84;92.98;93699.44;5433775;26;20268;-58
2024/04/18 00:22:29;;;;;;;7.60;6.80;;;5.90;99.90;;;-141.84;93.62;96350.63;5428559;26;20374;-59
2024/04/18 00:24:59;;;;;;;7.37;6.60;;;5.90;99.90;;;-141.84;93.69;96350.63;5429089;26;20310;-59
2024/04/18 00:27:27;;;;;;;8.77;7.47;;;5.90;99.90;;;-141.84;93.56;95555.09;5444068;26;20358;-59
2024/04/18 00:29:57;;;;;;;7.30;6.60;;;5.80;99.90;;;-141.84;93.09;94759.69;5419772;26;20253;-59
2024/04/18 00:32:28;;;;;;;7.93;6.83;;;5.80;99.90;;;-141.84;92.46;93434.41;5422338;26;20468;-59
2024/04/18 00:34:58;;;;;;;6.90;6.20;;;5.80;99.90;;;-141.84;91.76;89990.66;5431542;26;20223;-58
2024/04/18 00:37:25;;;;;;;7.57;6.77;;;5.80;99.90;;;-141.84;92.24;92109.53;5431577;26;20300;-59
2024/04/18 00:39:55;;;;;;;7.57;6.83;;;5.80;99.90;;;-141.84;93.11;93964.47;5432871;26;20253;-59
2024/04/18 00:42:23;;;;;;;7.53;6.73;;;5.70;99.90;;;-141.84;93.16;95024.81;5432995;26;20266;-58
2024/04/18 00:44:53;;;;;;;10.57;7.00;;;5.80;99.90;;;-141.84;93.40;95555.09;5434148;26;20241;-59
2024/04/18 00:47:20;;;;;;;7.17;6.47;;;5.80;99.90;;;-141.84;89.54;84433.91;5418978;26;20230;-59
2024/04/18 00:49:54;;;;;;;7.70;6.63;;;5.80;99.90;;;-141.84;90.64;85491.75;5404323;26;20265;-59
2024/04/18 00:52:21;;;;;;;7.93;7.13;;;5.80;99.90;;;-141.84;92.84;93699.44;5432051;26;20715;-59
2024/04/18 00:54:52;;;;;;;7.53;6.83;;;5.80;99.90;;;-141.84;94.40;97411.59;5430521;26;20265;-61
2024/04/18 00:57:20;;;;;;;7.77;6.83;;;5.90;99.90;;;-141.84;94.53;98207.50;5427994;26;20288;-59
2024/04/18 00:59:51;;;;;;;8.03;7.23;;;5.90;99.90;;;-141.84;93.52;96085.44;5429121;26;20259;-59
2024/04/18 01:02:23;;;;;;;6.93;6.23;;;5.90;99.90;;;-141.84;92.96;95024.81;5428806;26;20269;-59
2024/04/18 01:04:57;;;;;;;8.37;7.40;;;6.00;99.90;;;-141.84;93.76;96881.06;5437464;26;20393;-59
2024/04/18 01:07:25;;;;;;;8.40;7.60;;;5.90;99.90;;;-141.84;95.04;99799.78;5433123;26;20253;-58
2024/04/18 01:09:56;;;;;;;8.70;7.83;;;5.90;99.90;;;-141.84;96.11;102189.38;5432462;26;20256;-59
2024/04/18 01:12:23;;;;;;;12.83;11.53;;;6.00;99.90;;;-141.84;92.33;95024.81;5432561;26;20287;-58
2024/04/18 01:14:53;;;;;;;12.33;11.13;;;6.00;99.90;;;-141.84;90.51;87872.91;5429338;26;20257;-58
2024/04/18 01:17:22;;;;;;;10.13;9.17;;;6.10;99.90;;;-141.84;90.81;87079.03;5427063;26;20227;-59
2024/04/18 01:19:52;;;;;;;8.83;7.93;;;6.10;99.90;;;-141.84;92.76;92904.41;5428492;26;20246;-59
2024/04/18 01:22:22;;;;;;;8.30;7.50;;;6.10;99.90;;;-141.84;91.99;91844.63;5437037;26;20705;-59
2024/04/18 01:24:52;;;;;;;8.00;7.30;;;6.10;99.90;;;-141.84;91.50;90255.47;5422433;26;20308;-73
2024/04/18 01:27:22;;;;;;;8.37;7.57;;;6.00;99.90;;;-141.84;92.68;92904.41;5435289;26;20250;-73
2024/04/18 01:29:52;;;;;;;11.57;7.23;;;6.00;99.90;;;-141.84;92.81;94759.69;5428623;26;20254;-72
2024/04/18 01:32:20;;;;;;;8.20;7.40;;;6.10;99.90;;;-141.84;91.38;90255.47;5427240;26;20295;-73
2024/04/18 01:34:49;;;;;;;8.57;7.03;;;6.00;99.90;;;-141.84;91.84;91314.81;5418199;26;20589;-72
2024/04/18 01:37:18;;;;;;;8.27;7.23;;;6.00;99.90;;;-141.84;91.37;91314.81;5442437;26;20281;-74
2024/04/18 01:39:48;;;;;;;7.37;6.67;;;6.00;99.90;;;-141.84;90.37;86020.75;5428590;26;20257;-74
2024/04/18 01:42:15;;;;;;;8.23;7.07;;;6.00;99.90;;;-141.84;90.14;84962.78;5433609;26;20354;-72
2024/04/18 01:44:49;;;;;;;7.67;6.87;;;6.00;99.90;;;-141.84;90.36;86814.44;5434006;26;20252;-73
2024/04/18 01:47:16;;;;;;;8.17;7.30;;;6.00;99.90;;;-141.84;89.41;83376.34;5434485;26;20218;-73
2024/04/18 01:49:46;;;;;;;8.80;8.00;;;6.00;99.90;;;-141.84;87.74;77564.72;5414808;26;20684;-72
2024/04/18 01:52:14;;;;;;;9.17;7.63;;;6.10;99.90;;;-141.84;88.03;77564.72;5416600;26;20801;-73
2024/04/18 01:54:44;;;;;;;8.73;7.57;;;6.10;99.90;;;-141.84;89.04;80997.84;5449195;26;20257;-73
2024/04/18 01:57:11;;;;;;;9.10;7.60;;;6.10;99.90;;;-141.84;90.02;84433.91;5440725;26;20249;-74
2024/04/18 01:59:42;;;;;;;8.93;7.53;;;6.10;99.90;;;-141.84;90.50;86549.84;5425481;26;20262;-74
2024/04/18 02:02:12;;;;;;;8.90;7.50;;;6.00;99.90;;;-141.84;89.88;84698.34;5444475;26;20232;-73
2024/04/18 02:04:42;;;;;;;9.20;7.60;;;6.00;99.90;;;-141.84;87.15;76772.88;5421042;26;20292;-73
2024/04/18 02:07:09;;;;;;;7.60;6.47;;;6.10;99.90;;;-141.84;86.16;70443.78;5443298;26;20250;-73
2024/04/18 02:09:39;;;;;;;7.10;5.40;;;6.10;99.90;;;-141.84;81.76;45751.28;5418874;26;20331;-73
2024/04/18 02:12:07;;;;;;;6.83;4.90;;;6.20;99.90;;;-141.84;80.27;29353.19;5433640;26;20257;-73
2024/04/18 02:14:38;;;;;;;4.50;4.10;;;6.20;99.90;;;-141.84;77.41;21175.75;5433130;26;20317;-74
2024/04/18 02:17:05;;;;;;;4.23;3.83;;;6.20;99.90;;;-141.84;76.49;19828.06;5414137;26;20272;-73
2024/04/18 02:19:38;;;;;;;3.90;3.60;;;6.30;99.90;;;-141.84;76.91;19773.19;5428370;26;20262;-73
2024/04/18 02:22:06;;;;;;;3.50;3.17;;;6.10;99.90;;;-141.84;77.42;20677.69;5429904;26;20312;-73
2024/04/18 02:24:43;;;;;;;3.53;3.23;;;6.20;99.90;;;-141.84;76.35;19732.53;5442119;26;20602;-73
2024/04/18 02:27:11;;;;;;;3.23;2.93;;;6.10;99.90;;;-141.84;74.16;19114.78;5448719;26;20305;-73
2024/04/18 02:29:41;;;;;;;4.37;3.23;;;6.20;99.90;;;-141.84;73.91;19019.28;5450299;26;20313;-75
2024/04/18 02:32:08;;;;;;;4.03;2.90;;;6.20;99.90;;;-141.84;73.59;18992.84;5450263;26;20225;-74
2024/04/18 02:34:41;;;;;;;3.10;2.80;;;6.30;99.90;;;-141.84;73.27;19035.53;5448172;26;20483;-74
2024/04/18 02:37:09;;;;;;;2.80;2.60;;;6.20;99.90;;;-141.84;74.16;19155.41;5435540;26;20581;-73
2024/04/18 02:39:39;;;;;;;2.70;2.50;;;6.20;99.90;;;-141.84;74.68;19185.88;5448241;26;20288;-73
2024/04/18 02:42:07;;;;;;;3.77;2.87;;;6.30;99.90;;;-141.84;72.64;18952.22;5447171;26;20249;-73
2024/04/18 02:44:37;;;;;;;3.43;3.00;;;6.30;99.90;;;-141.84;74.39;19192.00;5448869;26;20272;-73
2024/04/18 02:47:07;;;;;;;3.07;2.80;;;6.20;99.90;;;-141.84;74.19;19153.38;5450635;26;20615;-74
2024/04/18 02:49:36;;;;;;;3.23;2.60;;;6.20;99.90;;;-141.84;74.11;19102.56;5448555;26;20261;-74
2024/04/18 02:52:09;;;;;;;3.73;2.67;;;6.20;99.90;;;-141.84;73.06;18972.53;5448199;26;20619;-73
2024/04/18 02:54:37;;;;;;;3.13;2.60;;;6.10;99.90;;;-141.84;74.04;19070.06;5449293;26;20245;-74
2024/04/18 02:57:07;;;;;;;3.23;2.93;;;6.10;99.90;;;-141.84;75.34;19346.44;5448824;26;20295;-74
2024/04/18 02:59:35;;;;;;;2.93;2.50;;;6.00;99.90;;;-141.84;73.36;19013.16;5448434;26;20225;-74
2024/04/18 03:02:06;;;;;;;2.70;2.50;;;6.10;99.90;;;-141.84;74.71;19218.41;5449139;26;20643;-74
2024/04/18 03:04:34;;;;;;;3.37;2.70;;;5.90;99.90;;;-141.84;73.83;19029.44;5448064;26;20296;-73
2024/04/18 03:07:04;;;;;;;3.17;2.57;;;6.00;99.90;;;-141.84;74.75;19265.13;5449248;26;20733;-74
2024/04/18 03:09:34;;;;;;;3.33;2.73;;;5.90;99.90;;;-141.84;77.11;20793.56;5454792;26;20246;-74
2024/04/18 03:12:05;;;;;;;3.07;2.77;;;6.00;99.90;;;-141.84;73.64;19092.41;5451474;26;20249;-74
2024/04/18 03:14:32;;;;;;;2.40;2.20;;;6.00;99.90;;;-141.84;74.56;19116.81;5448694;26;20229;-73
2024/04/18 03:17:02;;;;;;;2.57;2.17;;;6.00;99.90;;;-141.84;76.33;19683.78;5449891;26;20694;-73
2024/04/18 03:19:29;;;;;;;3.17;2.83;;;6.00;99.90;;;-141.84;77.90;21598.66;5450409;26;20692;-73
2024/04/18 03:22:00;;;;;;;2.57;2.37;;;5.90;99.90;;;-141.84;78.08;21716.59;5448170;26;20299;-59
2024/04/18 03:24:27;;;;;;;3.93;2.90;;;5.90;99.90;;;-141.84;77.04;20208.13;5439650;26;20296;-59
2024/04/18 03:27:00;;;;;;;2.73;2.40;;;5.90;99.90;;;-141.84;76.12;19608.56;5420102;26;20756;-58
2024/04/18 03:29:27;;;;;;;3.07;2.67;;;5.90;99.90;;;-141.84;75.98;19698.00;5412347;26;20836;-59
2024/04/18 03:31:57;;;;;;;3.30;2.33;;;5.90;99.90;;;-141.84;75.65;19437.88;5411599;26;20266;-59
2024/04/18 03:34:25;;;;;;;2.87;2.53;;;5.90;99.90;;;-141.84;76.41;19945.94;5412138;26;20258;-59
2024/04/18 03:36:54;;;;;;;3.00;2.47;;;5.90;99.90;;;-141.84;72.99;19025.38;5411059;26;20253;-58
2024/04/18 03:39:25;;;;;;;3.07;2.70;;;6.00;99.90;;;-141.84;73.57;19025.38;5426729;26;20262;-59
2024/04/18 03:41:55;;;;;;;4.13;2.40;;;6.00;99.90;;;-141.84;73.34;19043.66;5410869;26;20257;-59
2024/04/18 03:44:28;;;;;;;3.37;2.43;;;6.00;99.90;;;-141.84;75.15;19291.56;5402203;26;20241;-59
2024/04/18 03:46:59;;;;;;;2.90;2.50;;;5.90;99.90;;;-141.84;74.18;19076.16;5431938;26;20569;-59
2024/04/18 03:49:30;;;;;;;3.13;2.83;;;5.90;99.90;;;-141.84;74.54;19165.56;5428661;26;20265;-58
2024/04/18 03:51:58;;;;;;;2.93;2.50;;;5.90;99.90;;;-141.84;76.87;19954.06;5428308;26;20247;-58
2024/04/18 03:54:28;;;;;;;3.47;2.57;;;5.80;99.90;;;-141.84;78.52;22822.88;5431127;26;20289;-60
2024/04/18 03:56:57;;;;;;;3.67;2.50;;;5.70;99.90;;;-141.84;79.50;25211.44;5434001;26;20266;-60
2024/04/18 03:59:29;;;;;;;3.30;2.83;;;5.70;99.90;;;-141.84;80.53;28907.03;5435423;26;20229;-60
2024/04/18 04:01:57;;;;;;;3.10;2.83;;;5.60;99.90;;;-141.84;81.60;37998.97;5435796;26;20226;-60
2024/04/18 04:04:27;;;;;;;2.30;2.10;;;5.50;99.90;;;-141.84;80.51;29400.06;5430291;26;20246;-60
2024/04/18 04:06:54;;;;;;;3.27;2.53;;;5.50;99.90;;;-141.84;81.56;36476.06;5434703;26;20296;-59
2024/04/18 04:09:24;;;;;;;2.70;2.50;;;5.40;99.90;;;-141.84;83.90;53352.78;5341104;26;20312;-61
2024/04/18 04:11:55;;;;;;;3.07;2.67;;;5.30;99.90;;;-141.84;82.33;47584.78;5402014;26;20370;-59
2024/04/18 04:14:26;;;;;;;2.93;2.63;;;5.40;99.90;;;-141.84;79.24;25152.44;5443397;26;20229;-60
2024/04/18 04:16:56;;;;;;;3.30;2.97;;;5.40;99.90;;;-141.84;80.37;28365.22;5435709;26;20229;-59
2024/04/18 04:19:23;;;;;;;3.43;2.90;;;5.30;99.90;;;-141.84;81.33;34939.47;5437513;26;20253;-59
2024/04/18 04:21:54;;;;;;;2.73;2.53;;;5.30;99.90;;;-141.84;82.08;42871.75;5425707;26;20360;-60
2024/04/18 04:24:23;;;;;;;2.87;2.63;;;5.30;99.90;;;-141.84;84.20;54927.34;5417577;26;20269;-59
2024/04/18 04:26:53;;;;;;;3.33;2.63;;;5.30;99.90;;;-141.84;83.50;58866.47;5450556;26;20259;-60
2024/04/18 04:29:22;;;;;;;4.00;2.63;;;5.30;99.90;;;-141.84;80.83;32438.94;5450112;26;20229;-59
2024/04/18 04:31:54;;;;;;;2.93;2.53;;;5.30;99.90;;;-141.84;79.43;24523.63;5447884;26;20745;-58
2024/04/18 04:34:22;;;;;;;3.20;2.70;;;5.30;99.90;;;-141.84;77.51;20754.94;5461574;26;20290;-59
2024/04/18 04:36:52;;;;;;;3.33;2.43;;;5.30;99.90;;;-141.84;77.24;20240.66;5450958;26;20772;-58
2024/04/18 04:39:20;;;;;;;2.73;2.40;;;5.40;99.90;;;-141.84;77.99;21348.56;5453587;26;20299;-59
2024/04/18 04:41:50;;;;;;;3.30;2.73;;;5.40;99.90;;;-141.84;77.97;21848.75;5453444;26;20587;-59
2024/04/18 04:44:17;;;;;;;3.30;3.00;;;5.40;99.90;;;-141.84;79.19;24104.47;5451210;26;20235;-60
2024/04/18 04:46:47;;;;;;;2.80;2.40;;;5.50;99.90;;;-141.84;77.83;21393.31;5450157;26;20382;-59
2024/04/18 04:49:17;;;;;;;3.10;2.43;;;5.60;99.90;;;-141.84;77.63;21354.66;5449288;26;20245;-59
2024/04/18 04:51:48;;;;;;;3.50;2.40;;;5.60;99.90;;;-141.84;75.35;19315.94;5463307;26;20261;-59
2024/04/18 04:54:16;;;;;;;3.87;2.83;;;5.80;99.90;;;-141.84;76.17;19641.09;5449213;26;20580;-58
2024/04/18 04:56:46;;;;;;;3.17;2.60;;;5.80;99.90;;;-141.84;76.65;20057.72;5448815;26;20767;-59
2024/04/18 04:59:14;;;;;;;3.97;2.70;;;5.90;99.90;;;-141.84;73.33;19029.44;5456542;26;20572;-59
2024/04/18 05:01:45;;;;;;;3.93;3.00;;;6.00;99.90;;;-141.84;72.77;18976.59;5452058;26;20298;-59
2024/04/18 05:04:13;;;;;;;3.77;2.83;;;6.10;99.90;;;-141.84;71.97;18952.22;5453623;26;20290;-59
2024/04/18 05:06:45;;;;;;;3.63;2.47;;;6.20;99.90;;;-141.84;71.97;18913.59;5450055;26;20793;-59
2024/04/18 05:09:17;;;;;;;3.87;2.83;;;6.20;99.90;;;-141.84;71.26;18915.63;5449611;26;20334;-60
2024/04/18 05:11:47;;;;;;;3.80;3.10;;;6.20;99.90;;;-141.84;71.37;18944.09;5436074;26;20250;-59
2024/04/18 05:14:15;;;;;;;3.80;2.97;;;6.30;99.90;;;-141.84;70.25;18931.91;5450801;26;20288;-59
2024/04/18 05:16:48;;;;;;;4.30;3.40;;;6.30;99.90;;;-141.84;70.34;18907.50;5368835;26;20706;-59
2024/04/18 05:19:16;;;;;;;3.90;3.30;;;6.40;99.90;;;-141.84;69.83;18925.81;5449409;26;20274;-59
2024/04/18 05:21:49;;;;;;;3.80;3.40;;;6.50;99.90;;;-141.84;69.18;18915.63;5450367;26;20253;-61
2024/04/18 05:24:18;;;;;;;6.20;3.53;;;6.60;99.90;;;-141.84;66.54;18954.25;5435930;26;20650;-59
2024/04/18 05:26:49;;;;;;;4.00;3.60;;;6.90;99.90;;;-141.84;66.66;18929.88;5451936;26;20254;-60
2024/04/18 05:32:05;;;;;;;5.57;3.33;;;6.90;99.90;;;-141.84;67.29;18944.09;5412123;26;20745;-60
2024/04/18 05:34:37;;;;;;;3.73;3.23;;;7.00;99.90;;;-141.84;66.43;18968.47;5450137;26;20250;-60
2024/04/18 05:37:14;;;;;;;3.60;3.30;;;7.10;99.90;;;-141.84;67.04;18994.88;5450498;26;20687;-60
2024/04/18 05:39:46;;;;;;;5.37;3.53;;;7.20;99.90;;;-141.84;67.21;19000.97;5362751;26;20358;-60
2024/04/18 05:42:17;;;;;;;4.17;3.50;;;7.30;99.90;;;-141.84;68.04;19033.50;5449638;26;20250;-59
2024/04/18 05:44:48;;;;;;;3.77;3.47;;;7.40;99.90;;;-141.84;67.12;18980.66;5449235;26;20659;-60
2024/04/18 05:47:19;;;;;;;4.23;3.80;;;7.50;99.90;;;-141.84;66.15;19023.34;5456544;26;20226;-60
2024/04/18 05:49:50;;;;;;;4.47;4.03;;;7.50;99.90;;;-141.84;63.06;19009.09;5449952;26;20272;-60
2024/04/18 05:52:24;;;;;;;5.20;4.07;;;7.60;99.90;;;-141.84;62.85;19029.44;5445546;26;20288;-60
2024/04/18 05:54:54;;;;;;;4.63;4.23;;;7.60;99.90;;;-141.84;62.16;19035.53;5449932;26;20284;-59
2024/04/18 05:57:24;;;;;;;5.33;4.07;;;7.70;99.90;;;-141.84;62.77;19021.31;5448715;26;20893;-60
2024/04/18 05:59:55;;;;;;;4.40;3.90;;;7.60;99.90;;;-141.84;63.23;19031.47;5447921;26;20655;-59
2024/04/18 06:02:25;;;;;;;5.73;4.47;;;7.60;99.90;;;-141.84;63.65;19023.34;5448066;26;20268;-60
2024/04/18 06:04:55;;;;;;;6.07;4.53;;;7.60;99.90;;;-141.84;62.93;19059.91;5453083;26;20233;-60
2024/04/18 06:07:32;;;;;;;6.03;4.63;;;7.60;99.90;;;-141.84;63.75;19007.06;5435007;26;20373;-59
2024/04/18 06:10:02;;;;;;;5.60;4.37;;;7.60;99.90;;;-141.84;62.98;19068.03;5448614;26;20254;-59
2024/04/18 06:12:32;;;;;;;8.33;4.80;;;7.70;99.90;;;-141.84;61.74;19049.75;5451266;26;20253;-59
2024/04/18 06:15:03;;;;;;;5.73;4.60;;;7.90;99.90;;;-141.84;61.46;19076.16;5437680;26;20730;-60
2024/04/18 06:17:33;;;;;;;5.43;4.47;;;8.10;99.90;;;-141.84;59.69;19133.06;5449215;26;20267;-59
2024/04/18 06:20:03;;;;;;;5.87;4.40;;;8.30;99.90;;;-141.84;60.41;19129.00;5435431;26;20343;-61
2024/04/18 06:22:36;;;;;;;5.30;4.27;;;8.50;99.90;;;-141.84;59.30;19098.50;5449978;26;20245;-60
2024/04/18 06:25:07;;;;;;;6.03;4.77;;;8.50;99.90;;;-141.84;59.44;19106.66;5433656;26;20251;-60
2024/04/18 06:27:37;;;;;;;6.50;4.03;;;8.50;99.90;;;-141.84;60.44;19102.56;5440731;26;20250;-60
2024/04/18 06:30:09;;;;;;;5.80;5.07;;;8.40;99.90;;;-141.84;60.47;19106.66;5428609;26;20251;-63
2024/04/18 06:32:39;;;;;;;5.93;4.80;;;8.40;99.90;;;-141.84;60.21;19102.56;5429247;26;20226;-60
2024/04/18 06:35:09;;;;;;;5.80;5.00;;;8.40;99.90;;;-141.84;60.51;19108.69;5427035;26;20267;-59
2024/04/18 06:37:42;;;;;;;6.63;5.27;;;8.50;99.90;;;-141.84;59.27;19161.50;5431608;26;20638;-59
2024/04/18 06:40:12;;;;;;;6.73;5.27;;;8.70;99.90;;;-141.84;57.95;19153.38;5386619;26;20252;-61
2024/04/18 06:42:43;;;;;;;6.90;5.43;;;8.80;99.90;;;-141.84;56.96;19189.97;5410348;26;20299;-59
2024/04/18 06:45:15;;;;;;;5.60;5.07;;;9.00;99.90;;;-141.84;55.70;19222.47;5400155;26;20286;-59
2024/04/18 06:47:47;;;;;;;5.23;4.73;;;9.20;99.90;;;-141.84;55.85;19216.38;5401494;26;20271;-58
2024/04/18 06:50:21;;;;;;;5.33;4.20;;;9.30;99.90;;;-141.84;57.30;19167.59;5432760;26;20311;-59
2024/04/18 06:53:00;;;;;;;6.30;5.13;;;9.10;99.90;;;-141.84;58.99;19147.28;5427582;26;20323;-59
2024/04/18 06:55:31;;;;;;;6.00;4.90;;;8.80;99.90;;;-141.84;60.77;19094.44;5429560;26;20302;-59
2024/04/18 06:58:03;;;;;;;8.90;5.60;;;8.60;99.90;;;-141.84;60.71;19108.69;5419739;26;20274;-59
2024/04/18 07:00:33;;;;;;;5.33;4.80;;;8.50;99.90;;;-141.84;60.06;19173.69;5407081;26;20248;-58
2024/04/18 07:03:08;;;;;;;6.13;4.83;;;8.70;99.90;;;-141.84;56.54;19192.00;5408199;26;20247;-59
2024/04/18 07:05:43;;;;;;;5.80;5.20;;;8.90;99.90;;;-141.84;56.56;19187.91;5416269;26;20234;-59
2024/04/18 07:08:22;;;;;;;5.97;5.20;;;8.90;99.90;;;-141.84;57.03;19185.88;5407036;26;20348;-59
2024/04/18 07:10:53;;;;;;;6.83;6.13;;;8.90;99.90;;;-141.84;56.66;19177.75;5409340;26;20242;-59
2024/04/18 07:13:25;;;;;;;6.33;5.63;;;9.00;99.90;;;-141.84;57.02;19155.41;5409471;26;20770;-60
2024/04/18 07:15:56;;;;;;;6.30;5.70;;;8.90;99.90;;;-141.84;55.67;19185.88;5411763;26;20651;-60
2024/04/18 07:18:28;;;;;;;6.50;5.90;;;9.10;99.90;;;-141.84;54.45;19228.56;5410318;26;20295;-59
2024/04/18 07:20:59;;;;;;;6.90;5.87;;;9.20;99.90;;;-141.84;53.96;19230.59;5405950;26;20379;-60
2024/04/18 07:23:33;;;;;;;6.67;5.50;;;9.30;99.90;;;-141.84;54.36;19206.22;5422425;26;20618;-59
2024/04/18 07:26:03;;;;;;;6.17;5.60;;;9.30;99.90;;;-141.84;55.11;19214.34;5418691;26;20286;-58
2024/04/18 07:28:33;;;;;;;5.87;5.17;;;9.20;99.90;;;-141.84;54.37;19248.88;5414403;26;20339;-60
2024/04/18 07:31:03;;;;;;;5.63;5.13;;;9.30;99.90;;;-141.84;53.52;19279.38;5414535;26;20251;-59
2024/04/18 07:33:38;;;;;;;5.50;5.00;;;9.50;99.90;;;-141.84;52.07;19291.56;5421000;26;20780;-58
2024/04/18 07:36:13;;;;;;;5.93;4.87;;;9.40;99.90;;;-141.84;53.28;19214.34;5406133;26;20242;-59
2024/04/18 07:38:47;;;;;;;5.67;5.17;;;9.20;99.90;;;-141.84;53.22;19210.28;5398186;26;20258;-60
2024/04/18 07:41:19;;;;;;;5.57;5.07;;;8.90;99.90;;;-141.84;56.01;19137.13;5411806;26;20276;-59
2024/04/18 07:43:51;;;;;;;6.07;5.27;;;8.50;99.90;;;-141.84;55.37;19153.38;5427994;26;20238;-59
2024/04/18 07:46:28;;;;;;;6.03;5.43;;;8.50;99.90;;;-141.84;54.35;19196.06;5411943;26;20247;-59
2024/04/18 07:49:02;;;;;;;5.77;5.03;;;8.70;99.90;;;-141.84;53.72;19224.50;5422287;26;20272;-58
2024/04/18 07:51:32;;;;;;;5.43;4.93;;;8.80;99.90;;;-141.84;52.42;19275.31;5414645;26;20280;-59
2024/04/18 07:54:07;;;;;;;5.67;5.00;;;9.10;99.90;;;-141.84;51.05;19303.75;5417818;26;20278;-58
2024/04/18 07:56:39;;;;;;;5.20;4.63;;;9.40;99.90;;;-141.84;51.50;19261.06;5409367;26;20243;-59
2024/04/18 07:59:13;;;;;;;5.17;4.67;;;9.20;99.90;;;-141.84;52.28;19261.06;5421621;26;20235;-60
2024/04/18 08:01:44;;;;;;;5.40;4.60;;;9.30;99.90;;;-141.84;51.90;19293.59;5327147;26;20281;-60
2024/04/18 08:04:23;;;;;;;6.37;4.30;;;9.40;99.90;;;-141.84;49.61;19289.53;5370498;26;20242;-73
2024/04/18 08:07:13;;;;;;;4.70;4.03;;;9.40;99.90;;;-141.84;51.57;19248.88;5418750;26;20242;-73
2024/04/18 08:09:50;;;;;;;5.03;4.00;;;9.10;99.90;;;-141.84;50.59;19210.28;5413606;26;20242;-73
2024/04/18 08:12:27;;;;;;;4.23;3.70;;;8.90;99.90;;;-141.84;49.52;19175.72;5414659;26;20681;-74
2024/04/18 08:15:04;;;;;;;3.70;3.40;;;8.70;99.90;;;-141.84;50.51;19208.25;5328908;26;20239;-74
2024/04/18 08:17:43;;;;;;;3.10;2.90;;;8.70;99.90;;;-141.84;49.76;19226.53;5416376;26;20230;-74
2024/04/18 08:20:13;;;;;;;3.57;2.70;;;8.80;99.90;;;-141.84;48.53;19228.56;5414443;26;20289;-73
2024/04/18 08:22:48;;;;;;;3.53;2.63;;;8.80;99.90;;;-141.84;48.30;19206.22;5414487;26;20416;-75
2024/04/18 08:25:21;;;;;;;2.80;2.50;;;8.70;99.90;;;-141.84;47.82;19240.75;5401287;26;20285;-74
2024/04/18 08:27:53;;;;;;;3.00;2.70;;;8.70;99.90;;;-141.84;48.50;19238.72;5466220;26;20342;-74
2024/04/18 08:30:23;;;;;;;3.43;3.13;;;8.80;99.90;;;-141.84;48.24;19246.84;5449711;26;20249;-73
2024/04/18 08:32:54;;;;;;;3.30;3.00;;;8.90;99.90;;;-141.84;48.07;19271.25;5452152;26;20246;-74
2024/04/18 08:35:26;;;;;;;3.57;3.00;;;9.00;99.90;;;-141.84;46.88;19328.13;5458507;26;20616;-74
2024/04/18 08:37:58;;;;;;;3.37;3.07;;;9.30;99.90;;;-141.84;46.17;19354.56;5449500;26;20768;-74
2024/04/18 08:40:34;;;;;;;3.50;3.20;;;9.70;99.90;;;-141.84;44.95;19405.34;5391113;26;20242;-73
2024/04/18 08:43:07;;;;;;;4.13;3.40;;;10.00;99.90;;;-141.84;45.19;19391.13;5457819;26;20287;-73
2024/04/18 08:45:38;;;;;;;4.23;3.60;;;10.10;99.90;;;-141.84;44.97;19358.63;5449584;26;20254;-75
2024/04/18 08:48:11;;;;;;;2.90;2.60;;;10.10;99.90;;;-141.84;44.31;19368.78;5458059;26;20244;-73
2024/04/18 08:50:45;;;;;;;3.37;2.80;;;9.90;99.90;;;-141.84;44.97;19360.66;5457923;26;20585;-73
2024/04/18 08:53:17;;;;;;;2.50;2.27;;;9.80;99.90;;;-141.84;43.57;19368.78;5448653;26;20237;-74
2024/04/18 08:55:53;;;;;;;3.37;1.97;;;9.70;99.90;;;-141.84;43.33;19344.41;5446763;26;20246;-74
2024/04/18 08:58:24;;;;;;;2.70;2.50;;;9.70;99.90;;;-141.84;44.01;19338.28;5448957;26;20302;-76
2024/04/18 09:00:54;;;;;;;2.67;2.47;;;9.40;99.90;;;-141.84;44.75;19307.81;5389746;26;20272;-73
2024/04/18 09:03:27;;;;;;;2.57;2.10;;;9.40;99.90;;;-141.84;44.41;19358.63;5447744;26;20245;-73
2024/04/18 09:05:59;;;;;;;3.97;2.20;;;9.50;99.90;;;-141.84;43.60;19397.22;5455436;26;20242;-73
2024/04/18 09:08:32;;;;;;;2.40;2.10;;;9.70;99.90;;;-141.84;42.92;19460.22;5393990;26;20238;-72
2024/04/18 09:11:06;;;;;;;2.23;1.90;;;10.10;99.90;;;-141.84;41.02;19496.81;5442189;26;20253;-75
2024/04/18 09:13:37;;;;;;;2.63;1.70;;;10.30;99.90;;;-141.84;41.06;19492.75;5412871;26;20284;-75
2024/04/18 09:16:11;;;;;;;2.10;1.87;;;10.50;99.90;;;-141.84;42.08;19466.31;5435322;26;20249;-73
2024/04/18 09:18:43;;;;;;;2.10;1.90;;;10.50;99.90;;;-141.84;42.85;19405.34;5448266;26;20238;-73
2024/04/18 09:21:14;;;;;;;2.00;1.70;;;10.00;99.90;;;-141.84;43.15;19387.06;5448737;26;20241;-73
2024/04/18 09:23:44;;;;;;;2.27;2.07;;;9.80;99.90;;;-141.84;43.83;19378.94;5451510;26;20233;-75
2024/04/18 09:26:23;;;;;;;2.47;2.27;;;9.60;99.90;;;-141.84;43.74;19376.91;5416554;26;20897;-75
2024/04/18 09:28:53;;;;;;;2.80;2.40;;;9.60;99.90;;;-141.84;44.03;19370.81;5422824;26;20283;-73
2024/04/18 09:31:24;;;;;;;2.47;2.27;;;9.70;99.90;;;-141.84;44.27;19322.03;5401377;26;20252;-74
2024/04/18 09:34:12;;;;;;;2.80;2.47;;;9.70;99.90;;;-141.84;43.87;19385.03;5413674;26;20281;-73
2024/04/18 09:36:44;;;;;;;33.87;19.03;;;9.80;99.90;;;-141.84;44.36;19368.78;5415731;26;20282;-74
2024/04/18 09:39:26;;;;;;;3.47;2.97;;;9.80;99.90;;;-141.84;44.59;19399.25;5430243;26;20288;-74
2024/04/18 09:42:12;;;;;;;18.00;9.10;;;9.90;99.90;;;-141.84;43.92;19443.97;5414611;26;20280;-74
2024/04/18 09:44:48;;;;;;;4.77;3.93;;;10.20;99.90;;;-141.84;43.66;19427.72;5364985;26;20248;-75
2024/04/18 09:47:25;;;;;;;2.90;2.60;;;10.30;99.90;;;-141.84;43.16;19419.59;5378020;26;20343;-74
2024/04/18 09:49:59;;;;;;;2.17;1.97;;;10.30;99.90;;;-141.84;43.50;19405.34;5414871;26;20302;-74
2024/04/18 09:52:32;;;;;;;1.80;1.70;;;10.10;99.90;;;-141.84;43.72;19405.34;5413867;26;20312;-74
2024/04/18 09:55:03;;;;;;;1.83;1.70;;;10.00;99.90;;;-141.84;42.89;19425.69;5421226;26;20246;-74
2024/04/18 09:57:45;;;;;;;1.73;1.63;;;10.20;99.90;;;-141.84;41.84;19511.03;5351024;26;20296;-74
2024/04/18 10:00:20;;;;;;;6.20;4.63;;;10.50;99.90;;;-141.84;40.74;19535.41;5288375;26;20303;-74
2024/04/18 10:02:56;;;;;;;2.20;1.37;;;10.80;99.90;;;-141.84;39.11;19604.50;5412970;26;20335;-76
2024/04/18 10:05:30;;;;;;;1.13;1.03;;;11.10;99.90;;;-141.84;39.45;19561.84;5413735;26;20232;-75
2024/04/18 10:08:02;;;;;;;1.40;1.30;;;11.10;99.90;;;-141.84;39.61;19616.72;5413805;26;20251;-75
2024/04/18 10:10:36;;;;;;;1.03;0.97;;;11.30;99.90;;;-141.84;39.80;19612.63;5366416;26;20344;-74
2024/04/18 10:13:13;;;;;;;1.60;1.50;;;11.40;99.90;;;-141.84;39.05;19594.34;5336469;26;20289;-74
2024/04/18 10:15:45;;;;;;;1.20;1.10;;;11.40;99.90;;;-141.84;39.03;19639.06;5334143;26;20245;-74
2024/04/18 10:18:20;;;;;;;2.10;1.50;;;11.50;99.90;;;-141.84;38.85;19639.06;5354207;26;20234;-74
2024/04/18 10:20:56;;;;;;;1.30;1.20;;;11.50;99.90;;;-141.84;39.54;19551.69;5389220;26;20278;-75
2024/04/18 10:23:32;;;;;;;1.50;1.40;;;11.40;99.90;;;-141.84;39.27;19535.41;5411467;26;20242;-75
2024/04/18 10:26:03;;;;;;;1.60;1.40;;;11.00;99.90;;;-141.84;39.23;19563.88;5378231;26;20230;-74
2024/04/18 10:28:38;;;;;;;1.73;1.30;;;11.10;99.90;;;-141.84;39.03;19620.78;5442159;26;20292;-74